Time;durP1;ratioP1;P1;durP2;ratioP2;P2;SDS_P1;SDS_P2;PMS_P1;PMS_P2;Temp;Humidity;BMP_temperature;BMP_pressure;BME280_temperature;BME280_humidity;BME280_pressure;Samples;Min_cycle;Max_cycle;Signal;HPM_P1;HPM_P2
2022/04/03 00:01:17;;;;;;;;;;;;;;;;;;5032493;28;1289;-69
2022/04/03 00:03:44;;;;;;;;;;;;;;;;;;5032264;28;696;-68
2022/04/03 00:06:10;;;;;;;;;;;;;;;;;;5031923;28;1075;-70
2022/04/03 00:08:36;;;;;;;;;;;;;;;;;;5032568;28;1047;-69
2022/04/03 00:11:04;;;;;;;;;;;;;;;;;;5031198;28;1328;-69
2022/04/03 00:13:30;;;;;;;;;;;;;;;;;;5032340;28;1987;-69
2022/04/03 00:15:56;;;;;;;;;;;;;;;;;;5032193;28;1127;-68
2022/04/03 00:18:24;;;;;;;;;;;;;;;;;;5031743;28;806;-69
2022/04/03 00:20:51;;;;;;;;;;;;;;;;;;5031720;28;1412;-70
2022/04/03 00:23:18;;;;;;;;;;;;;;;;;;5032305;28;851;-69
2022/04/03 00:25:44;;;;;;;;;;;;;;;;;;5031937;28;1103;-68
2022/04/03 00:28:12;;;;;;;;;;;;;;;;;;5014018;28;1319;-70
2022/04/03 00:30:38;;;;;;;;;;;;;;;;;;5014156;28;1363;-69
2022/04/03 00:33:04;;;;;;;;;;;;;;;;;;5031723;28;1918;-69
2022/04/03 00:35:31;;;;;;;;;;;;;;;;;;5032113;28;929;-69
2022/04/03 00:37:57;;;;;;;;;;;;;;;;;;5031623;28;1108;-69
2022/04/03 00:40:26;;;;;;;;;;;;;;;;;;5031687;28;1354;-69
2022/04/03 00:42:53;;;;;;;;;;;;;;;;;;5013528;28;1312;-69
2022/04/03 00:45:20;;;;;;;;;;;;;;;;;;5031594;28;1059;-68
2022/04/03 00:47:48;;;;;;;;;;;;;;;;;;5013756;28;1559;-69
2022/04/03 00:50:14;;;;;;;;;;;;;;;;;;5031704;28;1298;-68
2022/04/03 00:52:40;;;;;;;;;;;;;;;;;;5031359;28;1974;-68
2022/04/03 00:55:07;;;;;;;;;;;;;;;;;;5013682;28;1142;-69
2022/04/03 00:57:33;;;;;;;;;;;;;;;;;;5031460;28;794;-70
2022/04/03 01:00:01;;;;;;;;;;;;;;;;;;5031776;28;1366;-69
2022/04/03 01:02:30;;;;;;;;;;;;;;;;;;5031452;28;1016;-69
2022/04/03 01:04:56;;;;;;;;;;;;;;;;;;5014078;28;1288;-68
2022/04/03 01:07:23;;;;;;;;;;;;;;;;;;5031192;28;1119;-69
2022/04/03 01:09:49;;;;;;;;;;;;;;;;;;5031610;28;1376;-69
2022/04/03 01:12:16;;;;;;;;;;;;;;;;;;5031192;28;1906;-70
2022/04/03 01:14:43;;;;;;;;;;;;;;;;;;5013568;28;1109;-69
2022/04/03 01:17:11;;;;;;;;;;;;;;;;;;5030370;28;897;-69
2022/04/03 01:19:38;;;;;;;;;;;;;;;;;;5031073;28;1060;-69
2022/04/03 01:22:04;;;;;;;;;;;;;;;;;;5030336;28;882;-70
2022/04/03 01:24:31;;;;;;;;;;;;;;;;;;5030885;28;886;-70
2022/04/03 01:26:59;;;;;;;;;;;;;;;;;;5031042;28;856;-69
2022/04/03 01:29:25;;;;;;;;;;;;;;;;;;5030906;28;834;-69
2022/04/03 01:31:51;;;;;;;;;;;;;;;;;;5030771;28;1381;-71
2022/04/03 01:34:18;;;;;;;;;;;;;;;;;;5031015;28;1977;-69
2022/04/03 01:36:44;;;;;;;;;;;;;;;;;;5030745;28;1083;-68
2022/04/03 01:39:11;;;;;;;;;;;;;;;;;;5029822;28;791;-69
2022/04/03 01:41:37;;;;;;;;;;;;;;;;;;5030640;28;1297;-69
2022/04/03 01:44:05;;;;;;;;;;;;;;;;;;5030682;28;1072;-69
2022/04/03 01:46:31;;;;;;;;;;;;;;;;;;5025036;28;1516;-69
2022/04/03 01:48:57;;;;;;;;;;;;;;;;;;5024480;28;1535;-69
2022/04/03 01:51:24;;;;;;;;;;;;;;;;;;5030742;28;1375;-68
2022/04/03 01:53:50;;;;;;;;;;;;;;;;;;5030521;28;1985;-67
2022/04/03 01:56:16;;;;;;;;;;;;;;;;;;5030253;28;1043;-69
2022/04/03 01:58:42;;;;;;;;;;;;;;;;;;5030398;28;1139;-69
2022/04/03 02:01:10;;;;;;;;;;;;;;;;;;5030255;28;1318;-69
2022/04/03 02:03:36;;;;;;;;;;;;;;;;;;5030655;28;1126;-69
2022/04/03 02:06:02;;;;;;;;;;;;;;;;;;5030338;28;1015;-69
2022/04/03 02:08:29;;;;;;;;;;;;;;;;;;5029888;28;1020;-69
2022/04/03 02:10:55;;;;;;;;;;;;;;;;;;5030346;28;1369;-69
2022/04/03 02:13:21;;;;;;;;;;;;;;;;;;5012320;28;1973;-69
2022/04/03 02:15:48;;;;;;;;;;;;;;;;;;5030822;28;823;-68
2022/04/03 02:18:15;;;;;;;;;;;;;;;;;;5029874;28;1091;-69
2022/04/03 02:20:41;;;;;;;;;;;;;;;;;;5030291;28;1403;-69
2022/04/03 02:23:07;;;;;;;;;;;;;;;;;;5012573;28;898;-69
2022/04/03 02:25:34;;;;;;;;;;;;;;;;;;5020829;28;2543;-69
2022/04/03 02:28:00;;;;;;;;;;;;;;;;;;4947552;29;1060;-69
2022/04/03 02:30:26;;;;;;;;;;;;;;;;;;4941301;28;1332;-69
2022/04/03 02:32:52;;;;;;;;;;;;;;;;;;4949451;29;1985;-69
2022/04/03 02:35:20;;;;;;;;;;;;;;;;;;4952146;28;1060;-69
2022/04/03 02:37:46;;;;;;;;;;;;;;;;;;4952381;29;1068;-69
2022/04/03 02:40:13;;;;;;;;;;;;;;;;;;4952793;29;1391;-69
2022/04/03 02:42:40;;;;;;;;;;;;;;;;;;4952515;29;1131;-68
2022/04/03 02:45:06;;;;;;;;;;;;;;;;;;4952871;28;1118;-69
2022/04/03 02:47:33;;;;;;;;;;;;;;;;;;4952348;29;1067;-69
2022/04/03 02:49:59;;;;;;;;;;;;;;;;;;4952685;28;1379;-70
2022/04/03 02:52:26;;;;;;;;;;;;;;;;;;4952510;28;1126;-69
2022/04/03 02:54:52;;;;;;;;;;;;;;;;;;4952233;29;1918;-69
2022/04/03 02:57:19;;;;;;;;;;;;;;;;;;4952257;28;869;-70
2022/04/03 02:59:45;;;;;;;;;;;;;;;;;;4952450;29;1303;-69
2022/04/03 03:02:11;;;;;;;;;;;;;;;;;;4952685;28;1122;-69
2022/04/03 03:04:38;;;;;;;;;;;;;;;;;;4952638;28;1013;-68
2022/04/03 03:07:05;;;;;;;;;;;;;;;;;;4951979;28;1043;-68
2022/04/03 03:09:32;;;;;;;;;;;;;;;;;;5001591;22;3684;-68
2022/04/03 03:11:59;;;;;;;;;;;;;;;;;;5033654;28;1091;-68
2022/04/03 03:14:28;;;;;;;;;;;;;;;;;;5034805;28;1910;-66
2022/04/03 03:16:54;;;;;;;;;;;;;;;;;;5034661;28;1012;-68
2022/04/03 03:19:20;;;;;;;;;;;;;;;;;;5035257;28;1358;-68
2022/04/03 03:21:46;;;;;;;;;;;;;;;;;;5017090;28;1004;-68
2022/04/03 03:24:13;;;;;;;;;;;;;;;;;;5034657;28;805;-69
2022/04/03 03:26:41;;;;;;;;;;;;;;;;;;5034707;28;1083;-68
2022/04/03 03:29:08;;;;;;;;;;;;;;;;;;5034717;28;1360;-68
2022/04/03 03:31:34;;;;;;;;;;;;;;;;;;5034770;28;906;-68
2022/04/03 03:34:01;;;;;;;;;;;;;;;;;;5034609;28;1969;-68
2022/04/03 03:36:27;;;;;;;;;;;;;;;;;;5034672;28;807;-69
2022/04/03 03:38:54;;;;;;;;;;;;;;;;;;5034985;28;1348;-68
2022/04/03 03:41:20;;;;;;;;;;;;;;;;;;5034162;28;1005;-69
2022/04/03 03:43:48;;;;;;;;;;;;;;;;;;5034788;28;842;-68
2022/04/03 03:46:14;;;;;;;;;;;;;;;;;;5015702;28;1156;-68
2022/04/03 03:48:40;;;;;;;;;;;;;;;;;;5034533;28;1271;-68
2022/04/03 03:51:07;;;;;;;;;;;;;;;;;;5034511;28;861;-68
2022/04/03 03:53:33;;;;;;;;;;;;;;;;;;5016460;28;1909;-68
2022/04/03 03:56:00;;;;;;;;;;;;;;;;;;5027477;28;1448;-68
2022/04/03 03:58:26;;;;;;;;;;;;;;;;;;5013858;28;1293;-68
2022/04/03 04:00:54;;;;;;;;;;;;;;;;;;5013799;28;791;-67
2022/04/03 04:03:20;;;;;;;;;;;;;;;;;;5013876;28;969;-68
2022/04/03 04:05:46;;;;;;;;;;;;;;;;;;5014085;28;1139;-68
2022/04/03 04:08:12;;;;;;;;;;;;;;;;;;5013827;28;830;-68
2022/04/03 04:10:38;;;;;;;;;;;;;;;;;;5014205;28;1342;-68
2022/04/03 04:13:05;;;;;;;;;;;;;;;;;;4996481;28;2006;-68
2022/04/03 04:15:31;;;;;;;;;;;;;;;;;;5014204;28;878;-68
2022/04/03 04:17:59;;;;;;;;;;;;;;;;;;5013152;28;1044;-69
2022/04/03 04:20:25;;;;;;;;;;;;;;;;;;5013225;28;1353;-68
2022/04/03 04:22:51;;;;;;;;;;;;;;;;;;5013901;28;897;-68
2022/04/03 04:25:18;;;;;;;;;;;;;;;;;;5013813;28;1095;-68
2022/04/03 04:27:45;;;;;;;;;;;;;;;;;;5013711;28;1103;-67
2022/04/03 04:30:11;;;;;;;;;;;;;;;;;;5014201;28;1356;-68
2022/04/03 04:32:38;;;;;;;;;;;;;;;;;;5013427;28;846;-67
2022/04/03 04:35:05;;;;;;;;;;;;;;;;;;5013883;28;1977;-68
2022/04/03 04:37:32;;;;;;;;;;;;;;;;;;5013097;28;1056;-67
2022/04/03 04:39:58;;;;;;;;;;;;;;;;;;5012837;28;1349;-67
2022/04/03 04:42:24;;;;;;;;;;;;;;;;;;5014032;28;782;-69
2022/04/03 04:44:50;;;;;;;;;;;;;;;;;;4994879;28;897;-67
2022/04/03 04:47:16;;;;;;;;;;;;;;;;;;5012150;28;1064;-69
2022/04/03 04:49:43;;;;;;;;;;;;;;;;;;5018425;28;1462;-69
2022/04/03 04:52:10;;;;;;;;;;;;;;;;;;5029678;28;1294;-69
2022/04/03 04:54:38;;;;;;;;;;;;;;;;;;5029306;28;1910;-68
2022/04/03 04:57:04;;;;;;;;;;;;;;;;;;5029261;28;1075;-66
2022/04/03 04:59:31;;;;;;;;;;;;;;;;;;5029822;28;1544;-66
2022/04/03 05:01:59;;;;;;;;;;;;;;;;;;5029355;28;1527;-66
2022/04/03 05:04:25;;;;;;;;;;;;;;;;;;5029091;28;1432;-65
2022/04/03 05:06:51;;;;;;;;;;;;;;;;;;5028755;28;1611;-67
2022/04/03 05:09:19;;;;;;;;;;;;;;;;;;5029708;28;1324;-66
2022/04/03 05:11:46;;;;;;;;;;;;;;;;;;5029004;28;1571;-67
2022/04/03 05:14:13;;;;;;;;;;;;;;;;;;5029230;28;1918;-67
2022/04/03 05:16:39;;;;;;;;;;;;;;;;;;5029013;28;1559;-67
2022/04/03 05:19:05;;;;;;;;;;;;;;;;;;5029250;28;1319;-67
2022/04/03 05:21:32;;;;;;;;;;;;;;;;;;5011275;28;1622;-67
2022/04/03 05:23:58;;;;;;;;;;;;;;;;;;5010568;28;1511;-66
2022/04/03 05:26:26;;;;;;;;;;;;;;;;;;5028447;28;1520;-67
2022/04/03 05:28:53;;;;;;;;;;;;;;;;;;5028781;28;1338;-67
2022/04/03 05:31:19;;;;;;;;;;;;;;;;;;5011215;28;1568;-67
2022/04/03 05:33:46;;;;;;;;;;;;;;;;;;5025946;28;1981;-67
2022/04/03 05:36:12;;;;;;;;;;;;;;;;;;5022518;28;1376;-67
2022/04/03 05:38:38;;;;;;;;;;;;;;;;;;5018151;28;1415;-67
2022/04/03 05:41:05;;;;;;;;;;;;;;;;;;5028221;28;1403;-68
2022/04/03 05:43:32;;;;;;;;;;;;;;;;;;5011259;28;1359;-68
2022/04/03 05:45:58;;;;;;;;;;;;;;;;;;5028603;28;1638;-67
2022/04/03 05:48:24;;;;;;;;;;;;;;;;;;5028921;28;1350;-67
2022/04/03 05:50:51;;;;;;;;;;;;;;;;;;5027659;28;1575;-68
2022/04/03 05:53:17;;;;;;;;;;;;;;;;;;5026823;28;1535;-68
2022/04/03 05:55:43;;;;;;;;;;;;;;;;;;5028820;28;1914;-68
2022/04/03 05:58:09;;;;;;;;;;;;;;;;;;5029265;28;1562;-67
2022/04/03 06:00:37;;;;;;;;;;;;;;;;;;5030040;28;1528;-67
2022/04/03 06:03:03;;;;;;;;;;;;;;;;;;5030222;28;1665;-68
2022/04/03 06:05:31;;;;;;;;;;;;;;;;;;5030820;28;897;-68
2022/04/03 06:07:57;;;;;;;;;;;;;;;;;;5029998;28;1650;-68
2022/04/03 06:10:24;;;;;;;;;;;;;;;;;;5029327;28;1603;-68
2022/04/03 06:12:51;;;;;;;;;;;;;;;;;;5013104;28;1345;-67
2022/04/03 06:15:17;;;;;;;;;;;;;;;;;;5030781;28;1979;-68
2022/04/03 06:17:45;;;;;;;;;;;;;;;;;;5012286;28;1650;-68
2022/04/03 06:20:11;;;;;;;;;;;;;;;;;;5031137;28;1414;-67
2022/04/03 06:22:38;;;;;;;;;;;;;;;;;;5029953;28;1625;-67
2022/04/03 06:25:06;;;;;;;;;;;;;;;;;;5030393;28;1567;-68
2022/04/03 06:27:33;;;;;;;;;;;;;;;;;;5029532;28;1603;-68
2022/04/03 06:29:59;;;;;;;;;;;;;;;;;;5030187;28;1579;-68
2022/04/03 06:32:25;;;;;;;;;;;;;;;;;;5030338;28;1575;-68
2022/04/03 06:34:53;;;;;;;;;;;;;;;;;;5030382;28;1973;-68
2022/04/03 06:37:19;;;;;;;;;;;;;;;;;;5029987;28;1638;-68
2022/04/03 06:39:45;;;;;;;;;;;;;;;;;;5030034;28;1634;-68
2022/04/03 06:42:11;;;;;;;;;;;;;;;;;;5030617;28;957;-68
2022/04/03 06:44:38;;;;;;;;;;;;;;;;;;5030766;28;1658;-68
2022/04/03 06:47:04;;;;;;;;;;;;;;;;;;5030541;28;1555;-68
2022/04/03 06:49:31;;;;;;;;;;;;;;;;;;5001727;28;1567;-68
2022/04/03 06:51:58;;;;;;;;;;;;;;;;;;5029935;28;1654;-70
2022/04/03 06:54:25;;;;;;;;;;;;;;;;;;5030011;28;1981;-69
2022/04/03 06:56:52;;;;;;;;;;;;;;;;;;5027458;28;1615;-70
2022/04/03 06:59:18;;;;;;;;;;;;;;;;;;5010584;28;1258;-68
2022/04/03 07:01:44;;;;;;;;;;;;;;;;;;5009652;28;1468;-68
2022/04/03 07:04:11;;;;;;;;;;;;;;;;;;5007932;28;1115;-68
2022/04/03 07:06:37;;;;;;;;;;;;;;;;;;5007946;28;771;-68
2022/04/03 07:09:05;;;;;;;;;;;;;;;;;;5008267;28;1284;-68
2022/04/03 07:11:31;;;;;;;;;;;;;;;;;;5008612;28;1715;-68
2022/04/03 07:13:57;;;;;;;;;;;;;;;;;;5029562;28;1070;-68
2022/04/03 07:16:23;;;;;;;;;;;;;;;;;;5029112;28;1922;-68
2022/04/03 07:18:49;;;;;;;;;;;;;;;;;;5029695;28;1399;-68
2022/04/03 07:21:15;;;;;;;;;;;;;;;;;;5031076;28;782;-68
2022/04/03 07:23:42;;;;;;;;;;;;;;;;;;5033219;28;1127;-68
2022/04/03 07:26:09;;;;;;;;;;;;;;;;;;5032831;28;1136;-67
2022/04/03 07:28:36;;;;;;;;;;;;;;;;;;5033002;28;1324;-68
2022/04/03 07:31:02;;;;;;;;;;;;;;;;;;5032806;28;1072;-68
2022/04/03 07:33:29;;;;;;;;;;;;;;;;;;5036445;28;874;-68
2022/04/03 07:35:55;;;;;;;;;;;;;;;;;;5036407;28;1914;-68
2022/04/03 07:38:21;;;;;;;;;;;;;;;;;;5033867;28;1310;-67
2022/04/03 07:40:48;;;;;;;;;;;;;;;;;;5033107;28;1039;-68
2022/04/03 07:43:16;;;;;;;;;;;;;;;;;;5033218;28;1071;-68
2022/04/03 07:45:42;;;;;;;;;;;;;;;;;;5033023;28;1135;-68
2022/04/03 07:48:09;;;;;;;;;;;;;;;;;;5032848;28;1123;-68
2022/04/03 07:50:36;;;;;;;;;;;;;;;;;;5029445;28;1563;-69
2022/04/03 07:53:02;;;;;;;;;;;;;;;;;;5032828;28;873;-68
2022/04/03 07:55:28;;;;;;;;;;;;;;;;;;5031267;28;1922;-68
2022/04/03 07:57:54;;;;;;;;;;;;;;;;;;5032394;28;1078;-68
2022/04/03 08:00:22;;;;;;;;;;;;;;;;;;5032437;28;1376;-68
2022/04/03 08:02:48;;;;;;;;;;;;;;;;;;5032232;28;1079;-68
2022/04/03 08:05:14;;;;;;;;;;;;;;;;;;5032392;28;993;-68
2022/04/03 08:07:41;;;;;;;;;;;;;;;;;;5032257;28;941;-68
2022/04/03 08:10:08;;;;;;;;;;;;;;;;;;5032247;28;1266;-67
2022/04/03 08:12:35;;;;;;;;;;;;;;;;;;5032012;28;1071;-67
2022/04/03 08:15:01;;;;;;;;;;;;;;;;;;5032273;28;1979;-68
2022/04/03 08:17:28;;;;;;;;;;;;;;;;;;5032312;28;1068;-68
2022/04/03 08:19:54;;;;;;;;;;;;;;;;;;5032568;28;1384;-68
2022/04/03 08:22:21;;;;;;;;;;;;;;;;;;5032153;28;1068;-68
2022/04/03 08:24:48;;;;;;;;;;;;;;;;;;5031603;28;977;-68
2022/04/03 08:27:14;;;;;;;;;;;;;;;;;;5029691;28;2394;-68
2022/04/03 08:29:41;;;;;;;;;;;;;;;;;;5040219;28;1382;-68
2022/04/03 08:32:07;;;;;;;;;;;;;;;;;;5042864;28;1228;-68
2022/04/03 08:34:35;;;;;;;;;;;;;;;;;;5051849;28;1914;-67
2022/04/03 08:37:01;;;;;;;;;;;;;;;;;;5051883;28;980;-68
2022/04/03 08:39:27;;;;;;;;;;;;;;;;;;5051744;28;1270;-68
2022/04/03 08:41:55;;;;;;;;;;;;;;;;;;5052087;28;861;-68
2022/04/03 08:44:23;;;;;;;;;;;;;;;;;;5033965;28;1232;-69
2022/04/03 08:46:50;;;;;;;;;;;;;;;;;;5051432;28;1059;-69
2022/04/03 08:49:16;;;;;;;;;;;;;;;;;;5051732;28;1278;-69
2022/04/03 08:51:44;;;;;;;;;;;;;;;;;;5051717;28;1126;-69
2022/04/03 08:54:10;;;;;;;;;;;;;;;;;;5051759;28;894;-70
2022/04/03 08:56:37;;;;;;;;;;;;;;;;;;5051317;28;1926;-69
2022/04/03 08:59:03;;;;;;;;;;;;;;;;;;5051551;28;1262;-69
2022/04/03 09:01:29;;;;;;;;;;;;;;;;;;5051707;28;1142;-70
2022/04/03 09:03:55;;;;;;;;;;;;;;;;;;5051404;28;965;-69
2022/04/03 09:06:22;;;;;;;;;;;;;;;;;;5051113;28;1060;-69
2022/04/03 09:08:50;;;;;;;;;;;;;;;;;;5050868;28;1388;-69
2022/04/03 09:14:10;;;;;;;;;;;;;;;;;;5064640;28;2864;-68
2022/04/03 09:16:39;;;;;;;;;;;;;;;;;;5070333;28;1913;-69
2022/04/03 09:19:05;;;;;;;;;;;;;;;;;;5070937;28;1005;-69
2022/04/03 09:21:32;;;;;;;;;;;;;;;;;;5070553;28;1250;-69
2022/04/03 09:24:06;;;;;;;;;;;;;;;;;;5070448;28;989;-69
2022/04/03 09:26:33;;;;;;;;;;;;;;;;;;5070531;28;1119;-69
2022/04/03 09:29:06;;;;;;;;;;;;;;;;;;5070759;28;1007;-70
2022/04/03 09:31:33;;;;;;;;;;;;;;;;;;5069475;28;1349;-70
2022/04/03 09:33:59;;;;;;;;;;;;;;;;;;5071161;28;898;-68
2022/04/03 09:36:26;;;;;;;;;;;;;;;;;;5070516;28;1977;-68
2022/04/03 09:38:52;;;;;;;;;;;;;;;;;;5070273;28;1301;-68
2022/04/03 09:41:20;;;;;;;;;;;;;;;;;;5068582;28;1702;-69
2022/04/03 09:43:46;;;;;;;;;;;;;;;;;;5069928;28;1346;-69
2022/04/03 09:46:13;;;;;;;;;;;;;;;;;;5070770;28;943;-69
2022/04/03 09:48:40;;;;;;;;;;;;;;;;;;5044108;28;1214;-68
2022/04/03 09:51:06;;;;;;;;;;;;;;;;;;5032842;28;1249;-70
2022/04/03 09:53:40;;;;;;;;;;;;;;;;;;5030819;28;1380;-68
2022/04/03 09:56:07;;;;;;;;;;;;;;;;;;5030159;28;1918;-68
2022/04/03 09:58:35;;;;;;;;;;;;;;;;;;5030429;28;887;-68
2022/04/03 10:01:01;;;;;;;;;;;;;;;;;;5045288;28;1519;-69
2022/04/03 10:03:27;;;;;;;;;;;;;;;;;;5048016;28;1641;-69
2022/04/03 10:05:53;;;;;;;;;;;;;;;;;;5049795;28;953;-69
2022/04/03 10:08:19;;;;;;;;;;;;;;;;;;5036731;28;1551;-68
2022/04/03 10:10:47;;;;;;;;;;;;;;;;;;5048404;28;1590;-69
2022/04/03 10:13:13;;;;;;;;;;;;;;;;;;5038152;28;1479;-69
2022/04/03 10:15:42;;;;;;;;;;;;;;;;;;5030513;28;1974;-69
2022/04/03 10:18:08;;;;;;;;;;;;;;;;;;5040368;28;1570;-69
2022/04/03 10:20:35;;;;;;;;;;;;;;;;;;5021488;28;1601;-69
2022/04/03 10:23:02;;;;;;;;;;;;;;;;;;5012334;28;1349;-69
2022/04/03 10:25:29;;;;;;;;;;;;;;;;;;5042984;28;1420;-69
2022/04/03 10:27:56;;;;;;;;;;;;;;;;;;5050139;28;886;-69
2022/04/03 10:30:27;;;;;;;;;;;;;;;;;;5037516;28;1614;-70
2022/04/03 10:32:57;;;;;;;;;;;;;;;;;;5030263;28;1279;-69
2022/04/03 10:35:23;;;;;;;;;;;;;;;;;;5041716;28;1918;-69
2022/04/03 10:37:58;;;;;;;;;;;;;;;;;;5037931;28;1495;-67
2022/04/03 10:40:28;;;;;;;;;;;;;;;;;;5029787;28;961;-69
2022/04/03 10:42:55;;;;;;;;;;;;;;;;;;5040609;28;1476;-67
2022/04/03 10:45:26;;;;;;;;;;;;;;;;;;5050408;28;747;-69
2022/04/03 10:47:54;;;;;;;;;;;;;;;;;;5039255;28;1499;-67
2022/04/03 10:50:25;;;;;;;;;;;;;;;;;;5049848;28;1593;-68
2022/04/03 10:52:57;;;;;;;;;;;;;;;;;;5040559;28;1491;-68
2022/04/03 10:55:25;;;;;;;;;;;;;;;;;;5031065;28;1914;-69
2022/04/03 10:57:51;;;;;;;;;;;;;;;;;;5041940;28;1547;-68
2022/04/03 11:00:32;;;;;;;;;;;;;;;;;;5035336;28;1314;-68
2022/04/03 11:03:02;;;;;;;;;;;;;;;;;;5041214;28;1729;-69
2022/04/03 11:05:43;;;;;;;;;;;;;;;;;;5040722;28;1558;-69
2022/04/03 11:08:16;;;;;;;;;;;;;;;;;;5053088;28;961;-68
2022/04/03 11:10:48;;;;;;;;;;;;;;;;;;5043850;28;1766;-68
2022/04/03 11:13:14;;;;;;;;;;;;;;;;;;5033127;28;1390;-69
2022/04/03 11:15:44;;;;;;;;;;;;;;;;;;5040976;28;1978;-69
2022/04/03 11:18:25;;;;;;;;;;;;;;;;;;5052865;28;1068;-69
2022/04/03 11:20:57;;;;;;;;;;;;;;;;;;5038390;28;1412;-69
2022/04/03 11:23:23;;;;;;;;;;;;;;;;;;5033806;28;1396;-69
2022/04/03 11:25:50;;;;;;;;;;;;;;;;;;5046081;28;1519;-68
2022/04/03 11:28:16;;;;;;;;;;;;;;;;;;5053780;28;886;-70
2022/04/03 11:30:43;;;;;;;;;;;;;;;;;;5042680;28;1531;-69
2022/04/03 11:33:09;;;;;;;;;;;;;;;;;;5054536;28;1300;-69
2022/04/03 11:35:36;;;;;;;;;;;;;;;;;;5024750;28;1927;-68
2022/04/03 11:38:03;;;;;;;;;;;;;;;;;;5032785;28;1130;-67
2022/04/03 11:40:29;;;;;;;;;;;;;;;;;;5041350;28;1559;-70
2022/04/03 11:43:12;;;;;;;;;;;;;;;;;;5043108;28;1562;-69
2022/04/03 11:45:38;;;;;;;;;;;;;;;;;;5049946;28;1427;-68
2022/04/03 11:48:15;;;;;;;;;;;;;;;;;;5042267;28;1590;-68
2022/04/03 11:50:41;;;;;;;;;;;;;;;;;;5034536;28;1543;-68
2022/04/03 11:53:09;;;;;;;;;;;;;;;;;;5033517;28;1333;-68
2022/04/03 11:55:36;;;;;;;;;;;;;;;;;;5033647;28;1925;-69
2022/04/03 11:58:04;;;;;;;;;;;;;;;;;;5032486;28;813;-67
2022/04/03 12:00:30;;;;;;;;;;;;;;;;;;5035606;28;1560;-68
2022/04/03 12:02:57;;;;;;;;;;;;;;;;;;5032573;28;1393;-68
2022/04/03 12:05:23;;;;;;;;;;;;;;;;;;5032532;28;901;-68
2022/04/03 12:07:49;;;;;;;;;;;;;;;;;;5013301;28;1298;-68
2022/04/03 12:10:24;;;;;;;;;;;;;;;;;;5032407;28;854;-68
2022/04/03 12:12:51;;;;;;;;;;;;;;;;;;5032288;28;1409;-68
2022/04/03 12:15:19;;;;;;;;;;;;;;;;;;5032226;28;1080;-68
2022/04/03 12:17:46;;;;;;;;;;;;;;;;;;5031891;28;1973;-68
2022/04/03 12:20:12;;;;;;;;;;;;;;;;;;5032428;28;1067;-69
2022/04/03 12:22:40;;;;;;;;;;;;;;;;;;5032087;28;1279;-68
2022/04/03 12:25:07;;;;;;;;;;;;;;;;;;5031925;28;1002;-68
2022/04/03 12:27:37;;;;;;;;;;;;;;;;;;5031958;28;853;-66
2022/04/03 12:30:04;;;;;;;;;;;;;;;;;;5032042;28;964;-68
2022/04/03 12:32:32;;;;;;;;;;;;;;;;;;5031767;28;1369;-70
2022/04/03 12:34:58;;;;;;;;;;;;;;;;;;5032714;28;1559;-68
2022/04/03 12:37:25;;;;;;;;;;;;;;;;;;5031317;28;1918;-68
2022/04/03 12:40:02;;;;;;;;;;;;;;;;;;5031485;28;1058;-69
2022/04/03 12:42:31;;;;;;;;;;;;;;;;;;5048381;28;1546;-69
2022/04/03 12:45:00;;;;;;;;;;;;;;;;;;5051514;28;1102;-69
2022/04/03 12:47:34;;;;;;;;;;;;;;;;;;5050550;28;1622;-67
2022/04/03 12:50:10;;;;;;;;;;;;;;;;;;5047137;28;1487;-67
2022/04/03 12:52:38;;;;;;;;;;;;;;;;;;5032403;28;1515;-69
2022/04/03 12:55:05;;;;;;;;;;;;;;;;;;5030454;28;1123;-68
2022/04/03 13:00:18;;;;;;;;;;;;;;;;;;5031620;28;1001;-68
2022/04/03 13:02:45;;;;;;;;;;;;;;;;;;5027469;28;1528;-68
2022/04/03 13:05:15;;;;;;;;;;;;;;;;;;5045990;28;1523;-69
2022/04/03 13:07:41;;;;;;;;;;;;;;;;;;5048090;28;1300;-69
2022/04/03 13:10:07;;;;;;;;;;;;;;;;;;5030643;28;1559;-68
2022/04/03 13:12:33;;;;;;;;;;;;;;;;;;5028332;28;1423;-68
2022/04/03 13:15:02;;;;;;;;;;;;;;;;;;5024153;28;1495;-69
2022/04/03 13:17:30;;;;;;;;;;;;;;;;;;5047440;28;1991;-68
2022/04/03 13:19:56;;;;;;;;;;;;;;;;;;5035295;28;1558;-69
2022/04/03 13:22:22;;;;;;;;;;;;;;;;;;5035739;28;1621;-69
2022/04/03 13:24:49;;;;;;;;;;;;;;;;;;5047849;28;779;-70
2022/04/03 13:27:16;;;;;;;;;;;;;;;;;;5026173;28;1606;-69
2022/04/03 13:29:42;;;;;;;;;;;;;;;;;;5028031;28;1119;-69
2022/04/03 13:32:08;;;;;;;;;;;;;;;;;;5041351;28;1649;-69
2022/04/03 13:34:35;;;;;;;;;;;;;;;;;;5041414;28;1618;-68
2022/04/03 13:37:02;;;;;;;;;;;;;;;;;;5042040;28;1929;-68
2022/04/03 13:39:29;;;;;;;;;;;;;;;;;;5027686;28;794;-70
2022/04/03 13:41:55;;;;;;;;;;;;;;;;;;5046422;28;1598;-69
2022/04/03 13:44:21;;;;;;;;;;;;;;;;;;5038888;28;1519;-69
2022/04/03 13:46:48;;;;;;;;;;;;;;;;;;5043600;28;1439;-69
2022/04/03 13:49:14;;;;;;;;;;;;;;;;;;5044136;28;1388;-66
2022/04/03 13:51:42;;;;;;;;;;;;;;;;;;5027742;28;1298;-68
2022/04/03 13:54:09;;;;;;;;;;;;;;;;;;5027710;28;1067;-68
2022/04/03 13:56:36;;;;;;;;;;;;;;;;;;5027269;28;1918;-67
2022/04/03 13:59:03;;;;;;;;;;;;;;;;;;5027133;28;949;-68
2022/04/03 14:01:30;;;;;;;;;;;;;;;;;;5030860;28;1432;-67
2022/04/03 14:03:56;;;;;;;;;;;;;;;;;;5044311;28;1246;-67
2022/04/03 14:06:22;;;;;;;;;;;;;;;;;;5047629;28;1013;-71
2022/04/03 14:08:50;;;;;;;;;;;;;;;;;;5044113;28;1491;-67
2022/04/03 14:11:17;;;;;;;;;;;;;;;;;;5043707;28;1606;-68
2022/04/03 14:13:43;;;;;;;;;;;;;;;;;;5045843;28;1543;-68
2022/04/03 14:16:09;;;;;;;;;;;;;;;;;;5027895;28;1554;-69
2022/04/03 14:18:36;;;;;;;;;;;;;;;;;;5040578;28;1970;-69
2022/04/03 14:21:02;;;;;;;;;;;;;;;;;;5045362;28;1542;-70
2022/04/03 14:23:32;;;;;;;;;;;;;;;;;;5036648;28;1558;-69
2022/04/03 14:26:00;;;;;;;;;;;;;;;;;;5037086;28;1475;-70
2022/04/03 14:28:26;;;;;;;;;;;;;;;;;;5027253;28;1240;-69
2022/04/03 14:30:52;;;;;;;;;;;;;;;;;;5031769;28;1443;-68
2022/04/03 14:33:18;;;;;;;;;;;;;;;;;;5051211;28;1356;-69
2022/04/03 14:35:45;;;;;;;;;;;;;;;;;;5038315;28;1542;-69
2022/04/03 14:38:11;;;;;;;;;;;;;;;;;;5044401;28;1918;-68
2022/04/03 14:40:37;;;;;;;;;;;;;;;;;;5031859;28;1515;-69
2022/04/03 14:43:05;;;;;;;;;;;;;;;;;;5031626;28;1551;-70
2022/04/03 14:45:32;;;;;;;;;;;;;;;;;;5050914;28;1706;-70
2022/04/03 14:47:58;;;;;;;;;;;;;;;;;;5041388;28;1443;-69
2022/04/03 14:50:25;;;;;;;;;;;;;;;;;;5030790;28;1629;-68
2022/04/03 14:52:52;;;;;;;;;;;;;;;;;;5031554;28;1574;-68
2022/04/03 14:55:18;;;;;;;;;;;;;;;;;;5040664;28;1840;-69
2022/04/03 14:57:45;;;;;;;;;;;;;;;;;;5047782;28;1981;-70
2022/04/03 15:00:13;;;;;;;;;;;;;;;;;;5036340;28;1217;-69
2022/04/03 15:02:39;;;;;;;;;;;;;;;;;;5052087;28;1384;-69
2022/04/03 15:05:07;;;;;;;;;;;;;;;;;;5051844;28;1087;-68
2022/04/03 15:07:35;;;;;;;;;;;;;;;;;;5049477;28;1601;-68
2022/04/03 15:10:01;;;;;;;;;;;;;;;;;;5044082;28;1555;-68
2022/04/03 15:12:28;;;;;;;;;;;;;;;;;;5031439;28;1543;-68
2022/04/03 15:14:54;;;;;;;;;;;;;;;;;;5042683;28;1641;-68
2022/04/03 15:17:22;;;;;;;;;;;;;;;;;;5059159;22;3874;-67
2022/04/03 15:19:48;;;;;;;;;;;;;;;;;;5050560;28;1388;-67
2022/04/03 15:22:14;;;;;;;;;;;;;;;;;;5024067;28;1535;-67
2022/04/03 15:24:40;;;;;;;;;;;;;;;;;;5052093;28;1704;-71
2022/04/03 15:27:07;;;;;;;;;;;;;;;;;;5049360;28;1554;-68
2022/04/03 15:29:34;;;;;;;;;;;;;;;;;;5042970;28;1575;-70
2022/04/03 15:32:01;;;;;;;;;;;;;;;;;;5035204;28;1543;-68
2022/04/03 15:34:28;;;;;;;;;;;;;;;;;;5036179;28;1649;-70
2022/04/03 15:36:54;;;;;;;;;;;;;;;;;;5043839;28;1930;-67
2022/04/03 15:39:21;;;;;;;;;;;;;;;;;;5042443;28;2126;-69
2022/04/03 15:41:48;;;;;;;;;;;;;;;;;;5045351;28;1646;-69
2022/04/03 15:44:14;;;;;;;;;;;;;;;;;;5036850;28;1388;-68
2022/04/03 15:46:40;;;;;;;;;;;;;;;;;;5043542;28;1635;-68
2022/04/03 15:49:07;;;;;;;;;;;;;;;;;;5031222;28;1630;-68
2022/04/03 15:51:34;;;;;;;;;;;;;;;;;;5013099;28;1629;-68
2022/04/03 15:54:00;;;;;;;;;;;;;;;;;;5020663;28;1554;-68
2022/04/03 15:56:28;;;;;;;;;;;;;;;;;;5040227;28;1478;-69
2022/04/03 15:58:54;;;;;;;;;;;;;;;;;;5043320;28;1979;-67
2022/04/03 16:01:21;;;;;;;;;;;;;;;;;;5049064;28;1645;-69
2022/04/03 16:03:48;;;;;;;;;;;;;;;;;;5037212;28;1606;-69
2022/04/03 16:06:15;;;;;;;;;;;;;;;;;;5029670;28;937;-69
2022/04/03 16:08:42;;;;;;;;;;;;;;;;;;5023891;28;1530;-69
2022/04/03 16:11:09;;;;;;;;;;;;;;;;;;5029102;28;1654;-69
2022/04/03 16:13:35;;;;;;;;;;;;;;;;;;5028722;28;1583;-68
2022/04/03 16:16:02;;;;;;;;;;;;;;;;;;5020653;28;1384;-69
2022/04/03 16:18:28;;;;;;;;;;;;;;;;;;5029531;28;1985;-69
2022/04/03 16:20:54;;;;;;;;;;;;;;;;;;5029826;28;1551;-68
2022/04/03 16:23:21;;;;;;;;;;;;;;;;;;5029627;28;1610;-69
2022/04/03 16:25:49;;;;;;;;;;;;;;;;;;5029909;28;1480;-69
2022/04/03 16:28:16;;;;;;;;;;;;;;;;;;5029540;28;1660;-70
2022/04/03 16:30:42;;;;;;;;;;;;;;;;;;5029965;28;1610;-69
2022/04/03 16:33:08;;;;;;;;;;;;;;;;;;5030100;28;1550;-69
2022/04/03 16:35:34;;;;;;;;;;;;;;;;;;5038846;28;1558;-69
2022/04/03 16:38:01;;;;;;;;;;;;;;;;;;5034098;28;2017;-70
2022/04/03 16:40:27;;;;;;;;;;;;;;;;;;5033945;28;1547;-70
2022/04/03 16:42:54;;;;;;;;;;;;;;;;;;5037287;28;1618;-69
2022/04/03 16:45:21;;;;;;;;;;;;;;;;;;5029928;28;1444;-70
2022/04/03 16:47:47;;;;;;;;;;;;;;;;;;5029065;28;1578;-70
2022/04/03 16:50:13;;;;;;;;;;;;;;;;;;5029340;28;1567;-69
2022/04/03 16:52:39;;;;;;;;;;;;;;;;;;5029171;28;1610;-69
2022/04/03 16:55:06;;;;;;;;;;;;;;;;;;5029658;28;1571;-70
2022/04/03 16:57:32;;;;;;;;;;;;;;;;;;5028782;28;1980;-68
2022/04/03 17:00:00;;;;;;;;;;;;;;;;;;5027669;28;1289;-69
2022/04/03 17:02:26;;;;;;;;;;;;;;;;;;5029420;28;1641;-69
2022/04/03 17:04:52;;;;;;;;;;;;;;;;;;5029105;28;1468;-68
2022/04/03 17:07:21;;;;;;;;;;;;;;;;;;5028425;28;1559;-70
2022/04/03 17:09:49;;;;;;;;;;;;;;;;;;5034610;28;1508;-70